Terminal Aerodrome Forecast
Issued by NWS

Home | Current Version | Previous Version | Text Only | Print | Product List | Glossary On
Versions: 1 2 3 4 5 6 7 8 9 10 11 12 13 14 15 16 17 18 19 20 21 22 23 24 25 26 27 28 29 30 31
000
FTAK31 PANC 010526
TAFADQ
TAF
PADQ 010526Z 0106/0206 02007KT P6SM -SHRA SCT020 SCT040 BKN250
     FM011100 02006KT P6SM BKN035
     FM020000 04006KT P6SM SCT040 BKN100=

USA.gov is the U.S. government's official web portal to all federal, state and local government web resources and services.